Gustavus, AK

4:19 AM AKST on November 18, 2017 (GMT -0900)
Gustavus

Weather History for PAGS - March, 2014

Change the Weather History Date:

Monday, March 17, 2014

  Actual Average Record
Temperature  
Mean Temperature 36 °F -  
Max Temperature 39 °F 38 °F 52 °F (1990)
Min Temperature 32 °F 27 °F 3 °F (2006)
Degree Days  
Heating Degree Days 30    
Moisture  
Dew Point 31 °F    
Average Humidity 83    
Maximum Humidity 93    
Minimum Humidity 65    
Precipitation  
Precipitation 0.00 in - - ()
Sea Level Pressure  
Sea Level Pressure 29.93 in    
Wind  
Wind Speed 8 mph (SE)    
Max Wind Speed 20 mph    
Max Gust Speed 25 mph    
Visibility 9 miles    
Events      
Averages and records for this station are not official NWS values.
T = Trace of Precipitation, MM = Missing Value Source: NWS Daily Summary

Daily Weather History Graph

Daily Weather History Graph

Search for Another Location

Airport or City:

Trip Planner

Search our weather history database for the weather conditions in past years. The results will help you decide how hot, cold, wet, or windy it might be!

Date:

Astronomy

Mar. 17, 2014 Rise Set
Actual Time 7:12 AM AKDT 7:10 PM AKDT
Civil Twilight 6:33 AM AKDT 7:50 PM AKDT
Nautical Twilight 5:46 AM AKDT 8:37 PM AKDT
Astronomical Twilight 4:56 AM AKDT 9:27 PM AKDT
Moon 9:00 PM AKDT (3/17) 7:14 AM AKDT (3/17)
Length of Visible Light 13h 17m
Length of Day
11h 58m
Full, 99% of the Moon is Illuminated
Mar 17
Full
Mar 23
Last Quarter
Mar 30
New
Apr 7
First Quarter
Apr 14
Full

Hourly Weather History & Observations

Time (AKDT) Temp. Windchill Dew Point Humidity Pressure Visibility Wind Dir Wind Speed Gust Speed Precip Events Conditions
12:16 AM 33.8 °F 27.7 °F 23.0 °F 65% 29.97 in 10.0 mi SSE 6.9 mph - N/A   Mostly Cloudy
12:36 AM 33.8 °F 27.0 °F 23.0 °F 65% 29.97 in 10.0 mi SSE 8.1 mph - N/A   Mostly Cloudy
12:56 AM 33.8 °F 27.0 °F 23.0 °F 65% 29.97 in 10.0 mi SSE 8.1 mph - N/A   Scattered Clouds
1:16 AM 33.8 °F 28.6 °F 24.8 °F 70% 29.97 in 10.0 mi SSE 5.8 mph - N/A   Scattered Clouds
1:36 AM 33.8 °F 29.6 °F 24.8 °F 70% 29.97 in 10.0 mi SE 4.6 mph - N/A   Partly Cloudy
1:56 AM 33.8 °F 25.3 °F 26.6 °F 75% 29.97 in 10.0 mi SE 11.5 mph 16.1 mph N/A   Scattered Clouds
2:16 AM 35.6 °F 28.0 °F 26.6 °F 70% 29.97 in 10.0 mi SSE 10.4 mph - N/A   Mostly Cloudy
2:36 AM 33.8 °F 24.3 °F 26.6 °F 75% 29.97 in 10.0 mi SE 13.8 mph - N/A   Mostly Cloudy
2:56 AM 33.8 °F 24.8 °F 28.4 °F 81% 29.96 in 10.0 mi SE 12.7 mph - N/A   Overcast
3:16 AM 33.8 °F 27.0 °F 28.4 °F 81% 29.96 in 10.0 mi ESE 8.1 mph - N/A   Overcast
3:36 AM 33.8 °F 25.3 °F 26.6 °F 75% 29.96 in 10.0 mi SE 11.5 mph 16.1 mph N/A   Overcast
3:56 AM 33.8 °F 25.3 °F 28.4 °F 81% 29.95 in 7.0 mi SE 11.5 mph - N/A   Overcast
4:16 AM 33.8 °F 24.8 °F 28.4 °F 81% 29.95 in 6.0 mi SE 12.7 mph - N/A   Overcast
4:36 AM 33.8 °F 25.3 °F 26.6 °F 75% 29.95 in 7.0 mi SE 11.5 mph - N/A   Mostly Cloudy
4:56 AM 33.8 °F 27.7 °F 28.4 °F 81% 29.94 in 5.0 mi SE 6.9 mph - N/A   Overcast
5:16 AM 33.8 °F 28.6 °F 28.4 °F 81% 29.94 in 4.0 mi SE 5.8 mph - N/A   Overcast
5:36 AM 32.0 °F - 28.4 °F 87% 29.93 in 3.0 mi Calm Calm - N/A   Overcast
5:56 AM 32.0 °F 28.7 °F 30.2 °F 93% 29.93 in 7.0 mi NE 3.5 mph - N/A   Overcast
6:16 AM 32.0 °F - 28.4 °F 87% 29.92 in 10.0 mi Calm Calm - N/A   Overcast
6:36 AM 32.0 °F 27.5 °F 28.4 °F 87% 29.92 in 10.0 mi NNW 4.6 mph - N/A   Overcast
6:56 AM 32.0 °F 27.5 °F 28.4 °F 87% 29.91 in 10.0 mi North 4.6 mph - N/A   Overcast
7:16 AM 32.0 °F 26.4 °F 28.4 °F 87% 29.91 in 10.0 mi NNW 5.8 mph - N/A   Overcast
7:36 AM 32.0 °F 25.6 °F 30.2 °F 93% 29.90 in 10.0 mi NNW 6.9 mph - N/A   Overcast
7:56 AM 32.0 °F - 28.4 °F 87% 29.89 in 10.0 mi Calm Calm - N/A   Overcast
8:16 AM 32.0 °F 26.4 °F 30.2 °F 93% 29.89 in 10.0 mi NW 5.8 mph - N/A   Overcast
8:36 AM 33.8 °F 28.6 °F 30.2 °F 87% 29.89 in 10.0 mi NNW 5.8 mph - N/A   Overcast
8:56 AM 33.8 °F 29.6 °F 30.2 °F 87% 29.88 in 10.0 mi WNW 4.6 mph - N/A   Overcast
9:16 AM 33.8 °F 27.0 °F 30.2 °F 87% 29.88 in 10.0 mi NNW 8.1 mph - N/A   Overcast
9:36 AM 33.8 °F 28.6 °F 30.2 °F 87% 29.88 in 10.0 mi NW 5.8 mph - N/A   Overcast
9:56 AM 33.8 °F 27.7 °F 30.2 °F 87% 29.87 in 10.0 mi NW 6.9 mph - N/A   Overcast
10:16 AM 33.8 °F 29.6 °F 30.2 °F 87% 29.88 in 3.0 mi NNW 4.6 mph - N/A   Overcast
10:36 AM 33.8 °F 29.6 °F 30.2 °F 87% 29.88 in 3.0 mi NNW 4.6 mph - N/A   Overcast
10:56 AM 33.8 °F 30.8 °F 30.2 °F 87% 29.88 in 4.0 mi NNW 3.5 mph - N/A   Overcast
11:16 AM 33.8 °F 30.8 °F 32.0 °F 93% 29.88 in 10.0 mi NW 3.5 mph - N/A   Overcast
11:36 AM 35.6 °F 31.7 °F 32.0 °F 87% 29.88 in 10.0 mi South 4.6 mph - N/A   Overcast
11:56 AM 37.4 °F 27.5 °F 30.2 °F 75% 29.88 in 10.0 mi SSE 18.4 mph 21.9 mph N/A   Overcast
12:16 PM 39.2 °F 29.6 °F 32.0 °F 75% 29.88 in 10.0 mi SE 19.6 mph 25.3 mph N/A   Overcast
12:36 PM 39.2 °F 31.2 °F 30.2 °F 70% 29.88 in 10.0 mi SSE 13.8 mph 24.2 mph N/A   Overcast
12:56 PM 39.2 °F 30.2 °F 32.0 °F 75% 29.88 in 10.0 mi SE 17.3 mph 23.0 mph N/A   Overcast
1:16 PM 39.2 °F 33.0 °F 32.0 °F 75% 29.89 in 10.0 mi SSE 9.2 mph 19.6 mph N/A   Overcast
1:36 PM 39.2 °F 33.6 °F 33.8 °F 81% 29.90 in 10.0 mi SSE 8.1 mph 21.9 mph N/A   Overcast
1:56 PM 39.2 °F 32.0 °F 33.8 °F 81% 29.91 in 10.0 mi SE 11.5 mph 18.4 mph N/A   Overcast
2:16 PM 39.2 °F 30.8 °F 33.8 °F 81% 29.91 in 10.0 mi SE 15.0 mph - N/A   Overcast
2:36 PM 39.2 °F 33.6 °F 35.6 °F 87% 29.92 in 10.0 mi SSE 8.1 mph - N/A   Overcast
2:56 PM 39.2 °F 33.6 °F 33.8 °F 81% 29.93 in 10.0 mi South 8.1 mph - N/A   Overcast
3:16 PM 39.2 °F 35.0 °F 35.6 °F 87% 29.93 in 10.0 mi SE 5.8 mph - N/A   Overcast
3:36 PM 39.2 °F 33.6 °F 35.6 °F 87% 29.93 in 10.0 mi SE 8.1 mph - N/A   Overcast
3:56 PM 39.2 °F 32.5 °F 35.6 °F 87% 29.92 in 10.0 mi ESE 10.4 mph - N/A   Overcast
4:16 PM 39.2 °F 31.2 °F 35.6 °F 87% 29.93 in 10.0 mi ESE 13.8 mph 18.4 mph N/A   Mostly Cloudy
4:36 PM 39.2 °F 33.0 °F 35.6 °F 87% 29.93 in 10.0 mi SSE 9.2 mph - N/A   Overcast
4:56 PM 39.2 °F 35.0 °F 33.8 °F 81% 29.94 in 10.0 mi SSE 5.8 mph - N/A   Overcast
5:16 PM 39.2 °F 34.2 °F 33.8 °F 81% 29.94 in 10.0 mi SE 6.9 mph - N/A   Overcast
5:36 PM 39.2 °F 34.2 °F 33.8 °F 81% 29.94 in 10.0 mi SSE 6.9 mph - N/A   Overcast
5:56 PM 39.2 °F 33.0 °F 33.8 °F 81% 29.94 in 10.0 mi SE 9.2 mph - N/A   Mostly Cloudy
6:16 PM 39.2 °F 33.6 °F 35.6 °F 87% 29.94 in 10.0 mi ESE 8.1 mph - N/A   Overcast
6:36 PM 39.2 °F 33.6 °F 35.6 °F 87% 29.94 in 10.0 mi SE 8.1 mph - N/A   Overcast
6:56 PM 39.2 °F 32.5 °F 35.6 °F 87% 29.94 in 10.0 mi ESE 10.4 mph - N/A   Overcast
7:16 PM 39.2 °F 34.2 °F 35.6 °F 87% 29.94 in 10.0 mi SE 6.9 mph - N/A   Overcast
7:36 PM 37.4 °F 30.3 °F 35.6 °F 93% 29.95 in 10.0 mi SE 10.4 mph - N/A   Overcast
7:56 PM 37.4 °F 32.1 °F 33.8 °F 87% 29.95 in 10.0 mi SE 6.9 mph - N/A   Mostly Cloudy
8:16 PM 37.4 °F 33.8 °F 33.8 °F 87% 29.95 in 10.0 mi South 4.6 mph - N/A   Mostly Cloudy
8:36 PM 37.4 °F 33.8 °F 33.8 °F 87% 29.95 in 10.0 mi SE 4.6 mph - N/A   Overcast
8:56 PM 37.4 °F 34.9 °F 33.8 °F 87% 29.95 in 10.0 mi ESE 3.5 mph - N/A   Overcast
9:16 PM 35.6 °F 31.7 °F 33.8 °F 93% 29.96 in 10.0 mi SSE 4.6 mph - N/A   Mostly Cloudy
9:36 PM 37.4 °F 34.9 °F 33.8 °F 87% 29.96 in 10.0 mi South 3.5 mph - N/A   Mostly Cloudy
9:56 PM 37.4 °F 33.8 °F 33.8 °F 87% 29.95 in 10.0 mi South 4.6 mph - N/A   Overcast
10:16 PM 37.4 °F 34.9 °F 32.0 °F 81% 29.95 in 10.0 mi ESE 3.5 mph - N/A   Mostly Cloudy
10:36 PM 35.6 °F - 32.0 °F 87% 29.95 in 10.0 mi Calm Calm - N/A   Mostly Cloudy
10:56 PM 33.8 °F - 32.0 °F 93% 29.95 in 10.0 mi Calm Calm - N/A   Mostly Cloudy
11:16 PM 35.6 °F - 33.8 °F 93% 29.95 in 10.0 mi Calm Calm - N/A   Overcast
11:36 PM 33.8 °F - 32.0 °F 93% 29.95 in 10.0 mi Calm Calm - N/A   Overcast
11:56 PM 37.4 °F 32.8 °F 33.8 °F 87% 29.95 in 10.0 mi ESE 5.8 mph - N/A   Overcast